Time;durP1;ratioP1;P1;durP2;ratioP2;P2;SDS_P1;SDS_P2;PMS_P1;PMS_P2;Temp;Humidity;BMP_temperature;BMP_pressure;BME280_temperature;BME280_humidity;BME280_pressure;Samples;Min_cycle;Max_cycle;Signal;HPM_P1;HPM_P2
2020/09/15 00:02:35;;;;;;;3.85;2.83;;;;;;;20.95;67.97;100915.92;;;;-57
2020/09/15 00:05:35;;;;;;;4.59;2.99;;;;;;;20.94;68.06;100911.13;;;;-57
2020/09/15 00:08:35;;;;;;;3.73;2.79;;;;;;;20.94;68.00;100912.66;;;;-57
2020/09/15 00:11:35;;;;;;;3.13;2.83;;;;;;;20.94;67.99;100909.58;;;;-58
2020/09/15 00:14:35;;;;;;;3.84;2.85;;;;;;;20.93;68.03;100906.94;;;;-57
2020/09/15 00:17:35;;;;;;;3.19;2.75;;;;;;;20.93;67.98;100900.42;;;;-53
2020/09/15 00:20:35;;;;;;;3.63;2.89;;;;;;;20.92;68.01;100901.16;;;;-57
2020/09/15 00:23:35;;;;;;;3.51;2.80;;;;;;;20.92;68.04;100896.73;;;;-58
2020/09/15 00:26:35;;;;;;;3.37;2.64;;;;;;;20.92;68.03;100897.02;;;;-58
2020/09/15 00:29:35;;;;;;;3.05;2.75;;;;;;;20.92;68.03;100894.13;;;;-58
2020/09/15 00:32:35;;;;;;;3.53;2.77;;;;;;;20.92;68.04;100894.78;;;;-53
2020/09/15 00:35:35;;;;;;;3.25;2.80;;;;;;;20.92;68.06;100897.91;;;;-52
2020/09/15 00:38:35;;;;;;;4.50;2.70;;;;;;;20.91;68.06;100894.55;;;;-52
2020/09/15 00:41:35;;;;;;;2.98;2.65;;;;;;;20.92;68.02;100891.69;;;;-54
2020/09/15 00:44:35;;;;;;;3.25;2.75;;;;;;;20.91;68.04;100886.64;;;;-58
2020/09/15 00:47:35;;;;;;;2.73;2.53;;;;;;;20.89;68.08;100886.62;;;;-58
2020/09/15 00:50:35;;;;;;;4.40;2.79;;;;;;;20.89;68.05;100884.66;;;;-52
2020/09/15 00:53:35;;;;;;;3.23;2.79;;;;;;;20.89;68.05;100889.06;;;;-54
2020/09/15 00:56:35;;;;;;;3.40;2.80;;;;;;;20.89;67.93;100888.74;;;;-57
2020/09/15 00:59:35;;;;;;;3.52;2.78;;;;;;;20.89;68.10;100885.56;;;;-57
2020/09/15 01:02:35;;;;;;;3.04;2.73;;;;;;;20.88;68.01;100882.06;;;;-58
2020/09/15 01:05:35;;;;;;;3.61;2.87;;;;;;;20.88;68.07;100882.23;;;;-57
2020/09/15 01:08:35;;;;;;;4.21;2.78;;;;;;;20.88;68.05;100884.52;;;;-52
2020/09/15 01:11:35;;;;;;;2.97;2.68;;;;;;;20.87;68.06;100886.61;;;;-52
2020/09/15 01:14:35;;;;;;;2.91;2.61;;;;;;;20.87;68.03;100887.91;;;;-53
2020/09/15 01:17:35;;;;;;;3.43;2.72;;;;;;;20.87;68.06;100888.16;;;;-52
2020/09/15 01:20:35;;;;;;;2.72;2.50;;;;;;;20.87;68.06;100887.67;;;;-52
2020/09/15 01:23:35;;;;;;;2.90;2.61;;;;;;;20.87;68.08;100890.93;;;;-52
2020/09/15 01:26:35;;;;;;;4.13;2.63;;;;;;;20.86;68.08;100893.95;;;;-52
2020/09/15 01:29:35;;;;;;;3.13;2.80;;;;;;;20.86;68.05;100893.30;;;;-58
2020/09/15 01:32:35;;;;;;;2.95;2.71;;;;;;;20.86;68.05;100894.69;;;;-58
2020/09/15 01:35:35;;;;;;;3.43;2.69;;;;;;;20.86;68.06;100893.70;;;;-54
2020/09/15 01:38:35;;;;;;;3.11;2.62;;;;;;;20.85;68.13;100889.61;;;;-58
2020/09/15 01:41:35;;;;;;;2.98;2.68;;;;;;;20.86;68.09;100883.44;;;;-58
2020/09/15 01:44:35;;;;;;;3.61;2.63;;;;;;;20.85;68.10;100883.91;;;;-58
2020/09/15 01:47:35;;;;;;;3.01;2.71;;;;;;;20.85;68.14;100883.33;;;;-57
2020/09/15 01:50:35;;;;;;;2.99;2.70;;;;;;;20.84;68.07;100882.03;;;;-58
2020/09/15 01:53:35;;;;;;;2.92;2.70;;;;;;;20.84;68.09;100886.92;;;;-57
2020/09/15 01:56:35;;;;;;;3.77;2.72;;;;;;;20.84;68.09;100886.68;;;;-52
2020/09/15 01:59:35;;;;;;;3.03;2.69;;;;;;;20.84;68.10;100880.90;;;;-52
2020/09/15 02:02:35;;;;;;;2.83;2.63;;;;;;;20.84;68.10;100882.28;;;;-56
2020/09/15 02:05:35;;;;;;;2.93;2.67;;;;;;;20.84;68.06;100883.09;;;;-56
2020/09/15 02:08:35;;;;;;;2.73;2.53;;;;;;;20.83;68.10;100886.25;;;;-52
2020/09/15 02:11:35;;;;;;;2.97;2.61;;;;;;;20.84;68.14;100891.65;;;;-52
2020/09/15 02:14:35;;;;;;;2.79;2.59;;;;;;;20.83;68.10;100890.16;;;;-53
2020/09/15 02:17:35;;;;;;;4.26;2.60;;;;;;;20.84;68.10;100889.95;;;;-52
2020/09/15 02:20:35;;;;;;;2.83;2.60;;;;;;;20.82;68.12;100889.92;;;;-52
2020/09/15 02:23:35;;;;;;;2.65;2.45;;;;;;;20.82;68.12;100888.95;;;;-58
2020/09/15 02:26:35;;;;;;;3.03;2.71;;;;;;;20.83;68.12;100890.89;;;;-53
2020/09/15 02:29:35;;;;;;;3.03;2.77;;;;;;;20.82;68.12;100890.66;;;;-52
2020/09/15 02:32:35;;;;;;;2.91;2.68;;;;;;;20.82;68.12;100888.21;;;;-52
2020/09/15 02:35:35;;;;;;;2.76;2.56;;;;;;;20.82;68.09;100886.59;;;;-52
2020/09/15 02:38:35;;;;;;;3.28;2.84;;;;;;;20.81;68.11;100889.09;;;;-52
2020/09/15 02:41:35;;;;;;;2.89;2.63;;;;;;;20.81;68.13;100888.84;;;;-52
2020/09/15 02:44:35;;;;;;;2.77;2.45;;;;;;;20.81;68.11;100886.89;;;;-58
2020/09/15 02:47:35;;;;;;;3.97;2.92;;;;;;;20.81;68.13;100884.52;;;;-54
2020/09/15 02:50:35;;;;;;;2.91;2.69;;;;;;;20.80;68.18;100885.59;;;;-54
2020/09/15 02:53:35;;;;;;;2.75;2.55;;;;;;;20.80;68.11;100887.55;;;;-52
2020/09/15 02:56:35;;;;;;;2.87;2.59;;;;;;;20.80;68.10;100891.05;;;;-52
2020/09/15 02:59:35;;;;;;;3.03;2.67;;;;;;;20.79;68.13;100891.22;;;;-54
2020/09/15 03:02:35;;;;;;;2.80;2.60;;;;;;;20.80;68.09;100889.91;;;;-52
2020/09/15 03:05:35;;;;;;;2.98;2.73;;;;;;;20.79;68.05;100890.23;;;;-58
2020/09/15 03:08:35;;;;;;;2.87;2.63;;;;;;;20.80;68.08;100886.41;;;;-54
2020/09/15 03:11:35;;;;;;;2.62;2.42;;;;;;;20.79;68.11;100889.91;;;;-58
2020/09/15 03:14:35;;;;;;;3.02;2.73;;;;;;;20.79;68.09;100893.06;;;;-58
2020/09/15 03:17:35;;;;;;;2.87;2.65;;;;;;;20.79;68.13;100896.08;;;;-58
2020/09/15 03:20:35;;;;;;;2.91;2.71;;;;;;;20.79;68.04;100897.22;;;;-57
2020/09/15 03:23:35;;;;;;;3.09;2.80;;;;;;;20.79;68.08;100896.00;;;;-53
2020/09/15 03:26:35;;;;;;;3.14;2.84;;;;;;;20.78;68.07;100898.20;;;;-57
2020/09/15 03:29:35;;;;;;;3.05;2.77;;;;;;;20.78;68.07;100895.84;;;;-54
2020/09/15 03:32:35;;;;;;;2.74;2.54;;;;;;;20.78;68.08;100900.31;;;;-58
2020/09/15 03:35:35;;;;;;;2.79;2.59;;;;;;;20.78;68.08;100897.87;;;;-58
2020/09/15 03:38:35;;;;;;;2.97;2.70;;;;;;;20.78;68.05;100891.69;;;;-58
2020/09/15 03:41:35;;;;;;;2.98;2.77;;;;;;;20.77;68.08;100891.77;;;;-58
2020/09/15 03:44:35;;;;;;;3.04;2.74;;;;;;;20.77;68.06;100886.72;;;;-58
2020/09/15 03:47:35;;;;;;;3.03;2.75;;;;;;;20.77;68.02;100887.38;;;;-58
2020/09/15 03:50:35;;;;;;;3.16;2.69;;;;;;;20.77;68.04;100885.17;;;;-54
2020/09/15 03:53:35;;;;;;;3.00;2.70;;;;;;;20.77;68.07;100883.34;;;;-57
2020/09/15 03:56:35;;;;;;;3.02;2.70;;;;;;;20.77;68.03;100883.19;;;;-56
2020/09/15 04:00:35;;;;;;;2.97;2.73;;;;;;;20.76;68.04;100886.45;;;;-53
2020/09/15 04:03:35;;;;;;;3.23;2.95;;;;;;;20.76;68.08;100884.58;;;;-53
2020/09/15 04:07:35;;;;;;;3.01;2.71;;;;;;;20.76;68.03;100884.91;;;;-52
2020/09/15 04:10:35;;;;;;;3.57;2.76;;;;;;;20.76;68.07;100887.11;;;;-58
2020/09/15 04:13:35;;;;;;;3.35;2.84;;;;;;;20.75;68.03;100885.80;;;;-58
2020/09/15 04:16:35;;;;;;;2.91;2.71;;;;;;;20.75;68.04;100884.34;;;;-57
2020/09/15 04:19:35;;;;;;;3.05;2.78;;;;;;;20.75;68.05;100883.12;;;;-58
2020/09/15 04:22:35;;;;;;;2.94;2.73;;;;;;;20.75;68.07;100882.52;;;;-58
2020/09/15 04:25:35;;;;;;;3.00;2.71;;;;;;;20.75;68.09;100885.45;;;;-58
2020/09/15 04:28:35;;;;;;;3.10;2.74;;;;;;;20.74;68.06;100880.41;;;;-57
2020/09/15 04:31:35;;;;;;;3.12;2.87;;;;;;;20.74;68.05;100883.27;;;;-52
2020/09/15 04:34:35;;;;;;;3.15;2.78;;;;;;;20.74;68.05;100887.91;;;;-52
2020/09/15 04:37:38;;;;;;;3.02;2.75;;;;;;;20.74;68.08;100888.06;;;;-53
2020/09/15 04:40:35;;;;;;;3.06;2.86;;;;;;;20.74;68.06;100885.38;;;;-52
2020/09/15 04:43:35;;;;;;;3.16;2.86;;;;;;;20.74;68.08;100891.98;;;;-54
2020/09/15 04:46:35;;;;;;;3.26;2.69;;;;;;;20.74;68.10;100893.03;;;;-54
2020/09/15 04:49:35;;;;;;;2.79;2.59;;;;;;;20.74;68.09;100893.69;;;;-54
2020/09/15 04:52:35;;;;;;;2.88;2.67;;;;;;;20.73;68.05;100891.81;;;;-52
2020/09/15 04:55:35;;;;;;;2.92;2.61;;;;;;;20.74;68.04;100892.30;;;;-53
2020/09/15 04:58:35;;;;;;;3.10;2.80;;;;;;;20.73;68.11;100891.33;;;;-53
2020/09/15 05:01:35;;;;;;;2.94;2.71;;;;;;;20.74;68.13;100888.48;;;;-52
2020/09/15 05:04:35;;;;;;;2.86;2.66;;;;;;;20.74;68.09;100893.52;;;;-52
2020/09/15 05:07:35;;;;;;;3.42;2.70;;;;;;;20.74;68.06;100899.39;;;;-57
2020/09/15 05:10:35;;;;;;;2.96;2.75;;;;;;;20.73;68.08;100894.64;;;;-54
2020/09/15 05:13:35;;;;;;;3.23;2.84;;;;;;;20.73;68.08;100900.05;;;;-58
2020/09/15 05:16:35;;;;;;;2.94;2.74;;;;;;;20.73;68.05;100904.33;;;;-57
2020/09/15 05:19:35;;;;;;;3.01;2.70;;;;;;;20.73;68.06;100905.26;;;;-58
2020/09/15 05:22:35;;;;;;;2.91;2.63;;;;;;;20.73;68.05;100907.95;;;;-52
2020/09/15 05:25:35;;;;;;;3.01;2.81;;;;;;;20.73;68.10;100907.86;;;;-58
2020/09/15 05:29:35;;;;;;;3.06;2.81;;;;;;;20.73;68.02;100907.21;;;;-58
2020/09/15 05:32:35;;;;;;;3.21;2.66;;;;;;;20.73;68.07;100910.12;;;;-57
2020/09/15 05:36:35;;;;;;;5.35;4.82;;;;;;;20.67;67.52;100906.75;;;;-56
2020/09/15 05:39:35;;;;;;;6.03;5.47;;;;;;;20.65;67.44;100906.55;;;;-58
2020/09/15 05:42:35;;;;;;;6.89;5.33;;;;;;;20.62;67.54;100902.21;;;;-52
2020/09/15 05:45:35;;;;;;;6.13;5.35;;;;;;;20.63;67.69;100901.75;;;;-55
2020/09/15 05:48:35;;;;;;;6.73;5.20;;;;;;;20.66;67.66;100905.27;;;;-55
2020/09/15 05:51:35;;;;;;;5.87;4.80;;;;;;;20.66;67.72;100906.41;;;;-55
2020/09/15 05:54:35;;;;;;;7.29;4.69;;;;;;;20.67;67.69;100908.30;;;;-54
2020/09/15 05:57:35;;;;;;;5.31;4.81;;;;;;;20.68;67.75;100910.49;;;;-50
2020/09/15 06:00:35;;;;;;;5.31;4.79;;;;;;;20.68;67.80;100910.09;;;;-51
2020/09/15 06:03:35;;;;;;;6.00;4.93;;;;;;;20.68;67.79;100910.98;;;;-55
2020/09/15 06:06:35;;;;;;;5.61;5.01;;;;;;;20.69;67.73;100917.44;;;;-51
2020/09/15 06:09:35;;;;;;;6.88;4.89;;;;;;;20.69;67.83;100921.56;;;;-51
2020/09/15 06:12:35;;;;;;;6.63;4.94;;;;;;;20.69;67.83;100929.09;;;;-51
2020/09/15 06:15:35;;;;;;;5.34;4.69;;;;;;;20.69;67.87;100929.66;;;;-50
2020/09/15 06:18:35;;;;;;;5.11;4.67;;;;;;;20.70;67.77;100927.12;;;;-51
2020/09/15 06:21:35;;;;;;;5.00;4.57;;;;;;;20.70;67.78;100929.57;;;;-50
2020/09/15 06:24:35;;;;;;;5.57;4.47;;;;;;;20.71;67.83;100932.17;;;;-55
2020/09/15 06:27:35;;;;;;;5.79;4.60;;;;;;;20.70;67.78;100935.11;;;;-54
2020/09/15 06:30:35;;;;;;;4.95;4.51;;;;;;;20.70;67.83;100933.97;;;;-55
2020/09/15 06:33:35;;;;;;;5.21;4.33;;;;;;;20.70;67.83;100940.08;;;;-54
2020/09/15 06:36:35;;;;;;;4.87;4.35;;;;;;;20.70;67.85;100937.88;;;;-54
2020/09/15 06:39:35;;;;;;;4.78;4.38;;;;;;;20.70;67.84;100937.14;;;;-54
2020/09/15 06:42:35;;;;;;;6.83;4.67;;;;;;;20.70;67.91;100938.03;;;;-55
2020/09/15 06:45:35;;;;;;;5.19;4.70;;;;;;;20.69;67.91;100936.58;;;;-55
2020/09/15 06:48:35;;;;;;;4.95;4.49;;;;;;;20.70;67.80;100933.16;;;;-54
2020/09/15 06:51:35;;;;;;;4.88;4.48;;;;;;;20.70;67.89;100933.31;;;;-54
2020/09/15 06:54:35;;;;;;;5.42;4.45;;;;;;;20.70;67.86;100931.36;;;;-54
2020/09/15 06:57:35;;;;;;;5.03;4.53;;;;;;;20.69;67.94;100930.47;;;;-55
2020/09/15 07:00:35;;;;;;;4.91;4.51;;;;;;;20.69;67.91;100930.31;;;;-54
2020/09/15 07:03:35;;;;;;;4.91;4.49;;;;;;;20.69;67.88;100930.95;;;;-54
2020/09/15 07:06:35;;;;;;;4.73;4.32;;;;;;;20.69;67.86;100930.39;;;;-54
2020/09/15 07:09:35;;;;;;;4.70;4.29;;;;;;;20.69;67.93;100932.83;;;;-55
2020/09/15 07:12:35;;;;;;;5.17;4.72;;;;;;;20.70;67.85;100936.33;;;;-54
2020/09/15 07:15:35;;;;;;;4.85;4.30;;;;;;;20.69;67.95;100937.55;;;;-51
2020/09/15 07:18:35;;;;;;;4.82;4.41;;;;;;;20.69;67.88;100940.66;;;;-51
2020/09/15 07:21:35;;;;;;;4.63;4.23;;;;;;;20.69;67.92;100940.45;;;;-50
2020/09/15 08:09:35;;;;;;;8.05;4.59;;;;;;;20.82;68.28;100954.36;;;;-58
2020/09/15 08:12:35;;;;;;;6.21;4.37;;;;;;;20.81;68.28;100952.13;;;;-49
2020/09/15 08:15:35;;;;;;;5.89;4.62;;;;;;;20.81;68.34;100952.63;;;;-49
2020/09/15 08:18:35;;;;;;;5.13;4.41;;;;;;;20.79;68.26;100953.83;;;;-49
2020/09/15 08:21:35;;;;;;;6.87;4.56;;;;;;;20.79;68.28;100956.52;;;;-49
2020/09/15 08:24:35;;;;;;;6.20;4.53;;;;;;;20.78;68.25;100960.27;;;;-50
2020/09/15 08:27:35;;;;;;;5.13;4.47;;;;;;;20.79;68.26;100963.44;;;;-51
2020/09/15 08:30:35;;;;;;;6.10;4.74;;;;;;;20.78;68.19;100959.05;;;;-51
2020/09/15 08:33:35;;;;;;;5.21;4.71;;;;;;;20.78;68.23;100962.55;;;;-51
2020/09/15 08:36:35;;;;;;;6.45;4.48;;;;;;;20.77;68.24;100961.09;;;;-57
2020/09/15 08:39:35;;;;;;;6.84;4.75;;;;;;;20.78;68.19;100963.77;;;;-50
2020/09/15 08:42:35;;;;;;;5.36;4.86;;;;;;;20.77;68.20;100961.33;;;;-58
2020/09/15 08:45:35;;;;;;;5.65;4.75;;;;;;;20.77;68.21;100959.05;;;;-49
2020/09/15 08:48:35;;;;;;;6.63;4.59;;;;;;;20.77;68.14;100955.93;;;;-51
2020/09/15 08:51:35;;;;;;;5.95;4.55;;;;;;;20.77;68.17;100960.68;;;;-56
2020/09/15 08:54:35;;;;;;;4.95;4.45;;;;;;;20.77;68.19;100967.66;;;;-50
2020/09/15 08:57:35;;;;;;;6.95;4.69;;;;;;;20.77;68.16;100964.08;;;;-51
2020/09/15 09:00:35;;;;;;;5.04;4.53;;;;;;;20.76;68.15;100957.97;;;;-51
2020/09/15 09:03:35;;;;;;;6.22;4.45;;;;;;;20.76;68.18;100957.23;;;;-57
2020/09/15 09:06:35;;;;;;;5.76;4.64;;;;;;;20.76;68.17;100954.39;;;;-57
2020/09/15 09:09:35;;;;;;;5.30;4.39;;;;;;;20.75;68.17;100953.58;;;;-58
2020/09/15 09:12:35;;;;;;;4.67;4.18;;;;;;;20.76;68.09;100954.30;;;;-51
2020/09/15 09:15:35;;;;;;;5.37;4.43;;;;;;;20.76;68.10;100951.70;;;;-50
2020/09/15 09:18:35;;;;;;;4.57;4.17;;;;;;;20.76;68.12;100952.84;;;;-50
2020/09/15 09:21:35;;;;;;;6.11;4.44;;;;;;;20.75;68.15;100951.63;;;;-55
2020/09/15 09:24:35;;;;;;;5.39;4.35;;;;;;;20.76;68.51;100950.23;;;;-51
2020/09/15 09:27:35;;;;;;;10.14;4.89;;;;;;;20.78;68.46;100951.06;;;;-57
2020/09/15 09:30:35;;;;;;;10.10;4.67;;;;;;;20.78;68.64;100947.80;;;;-51
2020/09/15 09:33:35;;;;;;;11.06;5.02;;;;;;;20.80;68.71;100947.98;;;;-59
2020/09/15 09:36:35;;;;;;;7.71;4.57;;;;;;;20.81;68.57;100942.20;;;;-49
2020/09/15 09:39:35;;;;;;;9.96;4.63;;;;;;;20.83;68.49;100939.45;;;;-48
2020/09/15 09:42:35;;;;;;;9.54;4.85;;;;;;;20.83;68.48;100936.11;;;;-48
2020/09/15 09:45:35;;;;;;;7.18;4.56;;;;;;;20.84;68.42;100934.50;;;;-47
2020/09/15 09:48:35;;;;;;;10.32;4.88;;;;;;;20.83;68.54;100932.69;;;;-52
2020/09/15 09:51:35;;;;;;;7.15;4.54;;;;;;;20.85;68.58;100933.11;;;;-57
2020/09/15 09:54:35;;;;;;;5.77;4.31;;;;;;;20.88;68.54;100931.11;;;;-56
2020/09/15 09:57:35;;;;;;;10.01;4.52;;;;;;;20.90;68.54;100929.58;;;;-47
2020/09/15 10:00:35;;;;;;;11.61;4.76;;;;;;;20.92;68.61;100924.14;;;;-51
2020/09/15 10:03:35;;;;;;;7.71;4.54;;;;;;;20.94;68.59;100919.84;;;;-48
2020/09/15 10:06:35;;;;;;;8.90;4.85;;;;;;;20.97;68.71;100917.48;;;;-51
2020/09/15 10:09:35;;;;;;;11.59;4.79;;;;;;;20.99;68.88;100915.95;;;;-58
2020/09/15 10:12:35;;;;;;;10.61;4.61;;;;;;;21.00;68.76;100913.26;;;;-57
2020/09/15 10:15:35;;;;;;;24.94;5.85;;;;;;;21.01;68.88;100912.30;;;;-59
2020/09/15 10:18:35;;;;;;;10.51;4.75;;;;;;;21.03;68.85;100909.30;;;;-51
2020/09/15 10:21:35;;;;;;;8.96;4.81;;;;;;;21.05;68.91;100906.95;;;;-45
2020/09/15 10:24:36;;;;;;;7.43;4.81;;;;;;;21.08;68.87;100906.55;;;;-46
2020/09/15 10:27:35;;;;;;;8.48;4.87;;;;;;;21.09;68.91;100906.90;;;;-51
2020/09/15 10:30:35;;;;;;;7.87;4.70;;;;;;;21.11;68.99;100903.25;;;;-59
2020/09/15 10:33:35;;;;;;;15.03;5.25;;;;;;;21.12;69.14;100898.92;;;;-52
2020/09/15 10:36:35;;;;;;;11.37;5.09;;;;;;;21.14;68.91;100896.98;;;;-45
2020/09/15 10:39:35;;;;;;;10.85;4.81;;;;;;;21.15;68.84;100895.05;;;;-54
2020/09/15 10:42:35;;;;;;;10.92;4.63;;;;;;;21.14;68.98;100892.66;;;;-54
2020/09/15 10:45:35;;;;;;;11.23;4.69;;;;;;;21.14;69.01;100891.60;;;;-54
2020/09/15 10:48:35;;;;;;;11.56;4.73;;;;;;;21.14;68.87;100888.74;;;;-54
2020/09/15 10:51:35;;;;;;;7.36;4.47;;;;;;;21.13;68.79;100882.80;;;;-54
2020/09/15 10:54:35;;;;;;;12.85;4.75;;;;;;;21.13;68.86;100878.73;;;;-54
2020/09/15 10:57:35;;;;;;;10.00;4.83;;;;;;;21.12;68.71;100873.81;;;;-58
2020/09/15 11:00:35;;;;;;;10.27;4.85;;;;;;;21.12;68.67;100872.92;;;;-58
2020/09/15 11:03:35;;;;;;;9.15;4.79;;;;;;;21.11;68.62;100868.86;;;;-47
2020/09/15 11:06:35;;;;;;;9.57;4.71;;;;;;;21.11;68.55;100866.98;;;;-58
2020/09/15 11:09:36;;;;;;;9.15;4.41;;;;;;;21.11;68.49;100862.50;;;;-56
2020/09/15 11:12:35;;;;;;;8.33;4.59;;;;;;;21.11;68.56;100864.21;;;;-49
2020/09/15 11:15:35;;;;;;;8.87;4.53;;;;;;;21.10;68.50;100859.14;;;;-58
2020/09/15 11:18:36;;;;;;;6.35;4.63;;;;;;;21.10;68.47;100853.59;;;;-58
2020/09/15 11:21:35;;;;;;;5.31;4.19;;;;;;;21.10;68.47;100855.06;;;;-58
2020/09/15 11:24:35;;;;;;;7.81;4.51;;;;;;;21.09;68.40;100850.02;;;;-58
2020/09/15 11:27:36;;;;;;;8.57;4.41;;;;;;;21.09;68.29;100851.08;;;;-58
2020/09/15 11:30:35;;;;;;;7.98;4.49;;;;;;;21.08;68.36;100843.26;;;;-58
2020/09/15 11:33:35;;;;;;;7.48;4.40;;;;;;;21.08;68.29;100835.16;;;;-58
2020/09/15 11:36:35;;;;;;;6.21;4.31;;;;;;;21.08;68.28;100831.73;;;;-58
2020/09/15 11:39:35;;;;;;;7.78;4.23;;;;;;;21.09;68.22;100825.41;;;;-58
2020/09/15 11:42:35;;;;;;;9.02;4.55;;;;;;;21.08;68.47;100825.00;;;;-58
2020/09/15 11:45:35;;;;;;;7.03;4.37;;;;;;;21.10;68.50;100820.51;;;;-58
2020/09/15 11:48:35;;;;;;;5.76;4.48;;;;;;;21.12;68.52;100818.32;;;;-58
2020/09/15 11:51:35;;;;;;;8.75;4.50;;;;;;;21.14;68.79;100815.48;;;;-53
2020/09/15 11:54:35;;;;;;;6.09;4.32;;;;;;;21.14;68.74;100813.27;;;;-53
2020/09/15 11:57:35;;;;;;;7.01;4.49;;;;;;;21.16;68.82;100811.09;;;;-56
2020/09/15 12:00:35;;;;;;;8.91;5.09;;;;;;;21.15;68.79;100804.73;;;;-55
2020/09/15 12:03:35;;;;;;;6.27;4.78;;;;;;;21.15;68.67;100805.48;;;;-53
2020/09/15 12:06:35;;;;;;;11.95;4.95;;;;;;;21.17;68.92;100799.86;;;;-48
2020/09/15 12:09:35;;;;;;;7.97;4.81;;;;;;;21.18;69.02;100796.26;;;;-50
2020/09/15 12:12:35;;;;;;;8.75;4.69;;;;;;;21.19;69.02;100792.13;;;;-49
2020/09/15 12:15:35;;;;;;;10.17;5.03;;;;;;;21.20;69.04;100785.43;;;;-53
2020/09/15 12:18:35;;;;;;;6.24;4.47;;;;;;;21.21;68.99;100781.86;;;;-52
2020/09/15 12:21:35;;;;;;;8.36;4.71;;;;;;;21.22;69.02;100780.06;;;;-51
2020/09/15 12:24:35;;;;;;;8.23;4.87;;;;;;;21.23;68.94;100775.81;;;;-55
2020/09/15 12:27:35;;;;;;;8.72;4.59;;;;;;;21.23;68.95;100771.03;;;;-56
2020/09/15 12:30:35;;;;;;;8.03;4.97;;;;;;;21.25;68.94;100770.04;;;;-49
2020/09/15 12:33:35;;;;;;;7.58;4.47;;;;;;;21.25;68.87;100767.45;;;;-57
2020/09/15 12:36:35;;;;;;;6.25;4.86;;;;;;;21.26;68.85;100765.82;;;;-50
2020/09/15 12:39:35;;;;;;;8.79;4.69;;;;;;;21.26;69.02;100762.48;;;;-48
2020/09/15 12:42:35;;;;;;;12.43;4.97;;;;;;;21.26;69.42;100755.95;;;;-44
2020/09/15 12:45:37;;;;;;;10.12;4.76;;;;;;;21.29;69.06;100752.61;;;;-49
2020/09/15 12:48:35;;;;;;;8.35;4.75;;;;;;;21.29;69.39;100748.64;;;;-50
2020/09/15 12:51:35;;;;;;;6.61;4.64;;;;;;;21.32;69.23;100749.54;;;;-50
2020/09/15 12:54:35;;;;;;;9.51;4.56;;;;;;;21.33;69.48;100747.73;;;;-50
2020/09/15 12:57:35;;;;;;;7.65;4.67;;;;;;;21.34;69.54;100742.53;;;;-51
2020/09/15 13:00:35;;;;;;;12.89;4.87;;;;;;;21.35;69.36;100734.12;;;;-51
2020/09/15 13:03:35;;;;;;;8.34;5.11;;;;;;;21.36;69.43;100732.84;;;;-48
2020/09/15 13:06:35;;;;;;;8.82;5.07;;;;;;;21.38;69.42;100731.87;;;;-48
2020/09/15 13:09:35;;;;;;;7.71;4.95;;;;;;;21.38;69.27;100721.59;;;;-55
2020/09/15 13:12:35;;;;;;;8.91;4.94;;;;;;;21.38;68.87;100721.92;;;;-54
2020/09/15 13:15:35;;;;;;;8.84;5.01;;;;;;;21.38;69.17;100721.84;;;;-59
2020/09/15 13:18:35;;;;;;;10.76;5.25;;;;;;;21.38;69.02;100718.58;;;;-60
2020/09/15 13:21:35;;;;;;;7.91;4.80;;;;;;;21.37;68.81;100717.09;;;;-51
2020/09/15 13:24:35;;;;;;;7.71;4.93;;;;;;;21.37;69.00;100710.76;;;;-53
2020/09/15 13:27:35;;;;;;;10.66;4.91;;;;;;;21.38;69.12;100709.38;;;;-58
2020/09/15 13:30:35;;;;;;;9.71;5.05;;;;;;;21.37;69.04;100706.25;;;;-60
2020/09/15 13:33:35;;;;;;;5.41;4.83;;;;;;;21.38;69.04;100703.73;;;;-57
2020/09/15 13:36:35;;;;;;;10.78;4.89;;;;;;;21.40;69.16;100698.36;;;;-48
2020/09/15 13:39:35;;;;;;;6.28;4.76;;;;;;;21.41;69.14;100698.11;;;;-51
2020/09/15 13:42:35;;;;;;;8.36;4.89;;;;;;;21.41;68.98;100696.31;;;;-60
2020/09/15 13:45:35;;;;;;;10.81;5.39;;;;;;;21.41;68.86;100693.22;;;;-54
2020/09/15 13:48:35;;;;;;;9.12;5.07;;;;;;;21.40;68.97;100693.63;;;;-57
2020/09/15 13:51:35;;;;;;;8.71;4.89;;;;;;;21.40;68.91;100685.15;;;;-59
2020/09/15 13:54:35;;;;;;;8.37;5.37;;;;;;;21.40;68.77;100680.19;;;;-59
2020/09/15 13:57:35;;;;;;;8.31;5.02;;;;;;;21.40;68.66;100677.98;;;;-53
2020/09/15 14:00:35;;;;;;;10.01;4.90;;;;;;;21.39;68.69;100675.55;;;;-53
2020/09/15 14:03:35;;;;;;;6.25;4.69;;;;;;;21.39;68.60;100675.44;;;;-54
2020/09/15 14:06:35;;;;;;;7.16;4.93;;;;;;;21.39;68.56;100669.57;;;;-53
2020/09/15 14:09:35;;;;;;;6.53;4.78;;;;;;;21.38;68.54;100669.33;;;;-53
2020/09/15 14:12:35;;;;;;;6.28;4.57;;;;;;;21.37;68.55;100665.64;;;;-53
2020/09/15 14:15:35;;;;;;;8.16;4.70;;;;;;;21.37;68.50;100662.39;;;;-53
2020/09/15 14:18:35;;;;;;;6.79;4.61;;;;;;;21.36;68.36;100657.10;;;;-53
2020/09/15 14:21:35;;;;;;;5.79;4.80;;;;;;;21.36;68.36;100657.75;;;;-53
2020/09/15 14:24:35;;;;;;;7.23;4.86;;;;;;;21.36;68.42;100650.09;;;;-53
2020/09/15 14:27:35;;;;;;;5.33;4.54;;;;;;;21.36;68.37;100647.08;;;;-54
2020/09/15 14:30:35;;;;;;;6.64;4.67;;;;;;;21.35;68.33;100645.59;;;;-53
2020/09/15 14:33:35;;;;;;;5.83;4.38;;;;;;;21.35;68.32;100641.19;;;;-53
2020/09/15 14:36:35;;;;;;;6.27;4.51;;;;;;;21.34;68.36;100639.81;;;;-53
2020/09/15 14:39:35;;;;;;;5.29;4.55;;;;;;;21.33;68.33;100637.87;;;;-59
2020/09/15 14:42:35;;;;;;;6.93;4.79;;;;;;;21.34;68.26;100635.01;;;;-58
2020/09/15 14:45:35;;;;;;;5.55;4.50;;;;;;;21.33;68.30;100630.75;;;;-59
2020/09/15 14:48:35;;;;;;;6.49;4.57;;;;;;;21.32;68.29;100629.78;;;;-59
2020/09/15 14:51:35;;;;;;;7.15;4.47;;;;;;;21.30;68.33;100625.20;;;;-50
2020/09/15 14:54:35;;;;;;;8.34;4.46;;;;;;;21.32;68.42;100627.74;;;;-52
2020/09/15 14:57:35;;;;;;;4.87;4.37;;;;;;;21.34;68.48;100627.91;;;;-58
2020/09/15 15:00:35;;;;;;;7.35;4.49;;;;;;;21.36;68.50;100628.73;;;;-55
2020/09/15 15:03:35;;;;;;;11.27;4.59;;;;;;;21.37;68.59;100630.37;;;;-54
2020/09/15 15:06:35;;;;;;;6.42;4.29;;;;;;;21.39;68.50;100629.45;;;;-57
2020/09/15 15:09:35;;;;;;;5.73;4.53;;;;;;;21.40;68.43;100625.63;;;;-54
2020/09/15 15:12:35;;;;;;;5.86;4.45;;;;;;;21.43;68.45;100626.31;;;;-54
2020/09/15 15:15:35;;;;;;;5.91;4.47;;;;;;;21.44;68.58;100622.98;;;;-48
2020/09/15 15:18:35;;;;;;;5.27;4.09;;;;;;;21.45;68.48;100621.34;;;;-55
2020/09/15 15:21:35;;;;;;;5.87;4.19;;;;;;;21.46;68.66;100618.25;;;;-58
2020/09/15 15:24:35;;;;;;;6.67;4.23;;;;;;;21.47;68.56;100611.15;;;;-55
2020/09/15 15:27:35;;;;;;;6.43;4.31;;;;;;;21.49;68.54;100609.11;;;;-57
2020/09/15 15:30:35;;;;;;;8.34;4.42;;;;;;;21.49;68.55;100599.81;;;;-51
2020/09/15 15:33:35;;;;;;;4.62;4.16;;;;;;;21.51;68.68;100601.30;;;;-53
2020/09/15 15:36:35;;;;;;;4.56;4.04;;;;;;;21.51;68.59;100598.10;;;;-49
2020/09/15 15:39:35;;;;;;;5.85;4.34;;;;;;;21.52;68.35;100601.77;;;;-51
2020/09/15 15:42:35;;;;;;;5.81;4.32;;;;;;;21.53;68.57;100600.23;;;;-50
2020/09/15 15:45:35;;;;;;;5.36;4.11;;;;;;;21.54;68.61;100599.16;;;;-50
2020/09/15 15:48:35;;;;;;;5.37;4.23;;;;;;;21.54;68.47;100594.94;;;;-52
2020/09/15 15:51:35;;;;;;;6.73;4.33;;;;;;;21.55;68.57;100598.52;;;;-48
2020/09/15 15:54:35;;;;;;;7.55;4.07;;;;;;;21.53;68.41;100597.78;;;;-52
2020/09/15 15:57:35;;;;;;;7.89;4.06;;;;;;;21.53;68.54;100602.52;;;;-51
2020/09/15 16:00:35;;;;;;;8.35;4.05;;;;;;;21.53;68.52;100600.96;;;;-51
2020/09/15 16:03:35;;;;;;;6.48;4.37;;;;;;;21.52;68.31;100594.37;;;;-50
2020/09/15 16:06:35;;;;;;;6.77;4.09;;;;;;;21.51;68.37;100601.53;;;;-50
2020/09/15 16:09:36;;;;;;;8.59;3.94;;;;;;;21.51;68.31;100601.12;;;;-59
2020/09/15 16:12:35;;;;;;;10.37;4.37;;;;;;;21.49;68.46;100601.52;;;;-53
2020/09/15 16:15:35;;;;;;;9.25;4.10;;;;;;;21.51;68.41;100602.77;;;;-62
2020/09/15 16:18:35;;;;;;;8.11;4.31;;;;;;;21.52;68.40;100598.75;;;;-54
2020/09/15 16:21:35;;;;;;;7.73;4.13;;;;;;;21.54;68.41;100596.41;;;;-53
2020/09/15 16:24:35;;;;;;;8.23;3.94;;;;;;;21.55;68.35;100590.20;;;;-50
2020/09/15 16:27:35;;;;;;;7.05;3.97;;;;;;;21.55;68.65;100592.98;;;;-54
2020/09/15 16:30:35;;;;;;;5.87;4.07;;;;;;;21.56;68.41;100590.05;;;;-48
2020/09/15 16:33:35;;;;;;;7.43;4.17;;;;;;;21.57;68.56;100592.06;;;;-49
2020/09/15 16:36:35;;;;;;;6.67;4.12;;;;;;;21.58;68.48;100593.04;;;;-49
2020/09/15 16:39:35;;;;;;;9.61;4.55;;;;;;;21.58;68.55;100592.96;;;;-55
2020/09/15 16:42:35;;;;;;;6.82;4.19;;;;;;;21.59;68.60;100593.63;;;;-53
2020/09/15 16:45:35;;;;;;;5.73;4.05;;;;;;;21.58;68.53;100591.59;;;;-49
2020/09/15 16:48:35;;;;;;;7.56;4.25;;;;;;;21.60;68.52;100591.17;;;;-49
2020/09/15 16:51:35;;;;;;;6.66;4.31;;;;;;;21.59;68.72;100587.42;;;;-57
2020/09/15 16:54:35;;;;;;;6.33;4.13;;;;;;;21.60;68.61;100585.80;;;;-51
2020/09/15 16:57:35;;;;;;;7.85;4.31;;;;;;;21.60;68.58;100586.02;;;;-56
2020/09/15 17:00:35;;;;;;;6.75;4.31;;;;;;;21.61;68.74;100587.36;;;;-55
2020/09/15 17:03:35;;;;;;;6.09;4.17;;;;;;;21.61;68.43;100588.73;;;;-52
2020/09/15 17:06:35;;;;;;;5.62;4.59;;;;;;;21.60;68.45;100593.31;;;;-51
2020/09/15 17:09:35;;;;;;;5.99;4.15;;;;;;;21.60;68.52;100588.55;;;;-51
2020/09/15 17:12:35;;;;;;;6.57;4.17;;;;;;;21.59;68.47;100587.02;;;;-52
2020/09/15 17:15:35;;;;;;;6.73;4.19;;;;;;;21.58;68.49;100585.23;;;;-52
2020/09/15 17:18:35;;;;;;;5.33;4.10;;;;;;;21.58;68.30;100584.17;;;;-52
2020/09/15 17:21:35;;;;;;;5.65;3.93;;;;;;;21.57;68.42;100589.13;;;;-51
2020/09/15 17:24:35;;;;;;;6.27;4.44;;;;;;;21.57;68.25;100587.34;;;;-51
2020/09/15 17:27:35;;;;;;;7.07;3.83;;;;;;;21.56;68.31;100589.07;;;;-52
2020/09/15 17:30:35;;;;;;;5.94;3.89;;;;;;;21.55;68.33;100588.31;;;;-50